sensor_id;sensor_type;location;lat;lon;timestamp;P1;durP1;ratioP1;P2;durP2;ratioP2
5961;SDS011;3007;50.770;0.250;2023-08-17T00:01:46;13.27;;;10.07;;
5961;SDS011;3007;50.770;0.250;2023-08-17T00:04:13;14.80;;;10.57;;
5961;SDS011;3007;50.770;0.250;2023-08-17T00:06:40;15.63;;;11.73;;
5961;SDS011;3007;50.770;0.250;2023-08-17T00:09:07;13.70;;;10.00;;
5961;SDS011;3007;50.770;0.250;2023-08-17T00:11:34;14.37;;;10.07;;
5961;SDS011;3007;50.770;0.250;2023-08-17T00:14:02;13.47;;;11.23;;
5961;SDS011;3007;50.770;0.250;2023-08-17T00:16:29;16.67;;;11.90;;
5961;SDS011;3007;50.770;0.250;2023-08-17T00:18:58;16.77;;;11.23;;
5961;SDS011;3007;50.770;0.250;2023-08-17T00:21:25;12.63;;;11.05;;
5961;SDS011;3007;50.770;0.250;2023-08-17T00:23:51;19.43;;;12.70;;
5961;SDS011;3007;50.770;0.250;2023-08-17T00:26:18;13.98;;;12.55;;
5961;SDS011;3007;50.770;0.250;2023-08-17T00:28:45;12.87;;;11.23;;
5961;SDS011;3007;50.770;0.250;2023-08-17T00:31:12;17.52;;;11.93;;
5961;SDS011;3007;50.770;0.250;2023-08-17T00:33:39;15.98;;;12.23;;
5961;SDS011;3007;50.770;0.250;2023-08-17T00:36:07;16.48;;;11.60;;
5961;SDS011;3007;50.770;0.250;2023-08-17T00:38:34;15.17;;;12.10;;
5961;SDS011;3007;50.770;0.250;2023-08-17T00:41:01;14.73;;;10.77;;
5961;SDS011;3007;50.770;0.250;2023-08-17T00:43:27;17.40;;;13.23;;
5961;SDS011;3007;50.770;0.250;2023-08-17T00:45:54;20.60;;;12.60;;
5961;SDS011;3007;50.770;0.250;2023-08-17T00:48:22;15.07;;;11.90;;
5961;SDS011;3007;50.770;0.250;2023-08-17T00:50:49;16.10;;;13.27;;
5961;SDS011;3007;50.770;0.250;2023-08-17T00:53:19;19.43;;;13.70;;
5961;SDS011;3007;50.770;0.250;2023-08-17T00:55:47;18.73;;;13.63;;
5961;SDS011;3007;50.770;0.250;2023-08-17T00:58:13;16.90;;;12.07;;
5961;SDS011;3007;50.770;0.250;2023-08-17T01:00:40;17.77;;;13.83;;
5961;SDS011;3007;50.770;0.250;2023-08-17T01:03:07;20.23;;;14.20;;
5961;SDS011;3007;50.770;0.250;2023-08-17T01:05:34;21.93;;;14.73;;
5961;SDS011;3007;50.770;0.250;2023-08-17T01:08:02;18.23;;;14.33;;
5961;SDS011;3007;50.770;0.250;2023-08-17T01:10:33;19.13;;;13.10;;
5961;SDS011;3007;50.770;0.250;2023-08-17T01:13:09;17.37;;;12.30;;
5961;SDS011;3007;50.770;0.250;2023-08-17T01:15:43;17.87;;;13.47;;
5961;SDS011;3007;50.770;0.250;2023-08-17T01:18:15;18.77;;;14.63;;
5961;SDS011;3007;50.770;0.250;2023-08-17T01:20:47;22.13;;;15.02;;
5961;SDS011;3007;50.770;0.250;2023-08-17T01:23:16;17.47;;;13.80;;
5961;SDS011;3007;50.770;0.250;2023-08-17T01:25:43;17.77;;;13.83;;
5961;SDS011;3007;50.770;0.250;2023-08-17T01:28:10;13.63;;;10.43;;
5961;SDS011;3007;50.770;0.250;2023-08-17T01:30:39;17.10;;;12.38;;
5961;SDS011;3007;50.770;0.250;2023-08-17T01:33:10;19.30;;;14.30;;
5961;SDS011;3007;50.770;0.250;2023-08-17T01:35:42;18.23;;;13.57;;
5961;SDS011;3007;50.770;0.250;2023-08-17T01:38:14;18.83;;;14.97;;
5961;SDS011;3007;50.770;0.250;2023-08-17T01:40:44;17.57;;;13.63;;
5961;SDS011;3007;50.770;0.250;2023-08-17T01:43:11;16.67;;;12.15;;
5961;SDS011;3007;50.770;0.250;2023-08-17T01:45:39;21.10;;;14.60;;
5961;SDS011;3007;50.770;0.250;2023-08-17T01:48:06;23.23;;;14.00;;
5961;SDS011;3007;50.770;0.250;2023-08-17T01:50:33;20.87;;;13.60;;
5961;SDS011;3007;50.770;0.250;2023-08-17T01:53:00;17.70;;;14.93;;
5961;SDS011;3007;50.770;0.250;2023-08-17T01:55:28;14.85;;;12.32;;
5961;SDS011;3007;50.770;0.250;2023-08-17T01:57:55;20.45;;;14.98;;
5961;SDS011;3007;50.770;0.250;2023-08-17T02:00:22;14.55;;;11.65;;
5961;SDS011;3007;50.770;0.250;2023-08-17T02:02:49;18.97;;;13.93;;
5961;SDS011;3007;50.770;0.250;2023-08-17T02:05:16;18.67;;;14.45;;
5961;SDS011;3007;50.770;0.250;2023-08-17T02:07:42;23.60;;;15.20;;
5961;SDS011;3007;50.770;0.250;2023-08-17T02:10:09;26.60;;;16.57;;
5961;SDS011;3007;50.770;0.250;2023-08-17T02:12:38;24.27;;;15.27;;
5961;SDS011;3007;50.770;0.250;2023-08-17T02:15:05;18.40;;;13.93;;
5961;SDS011;3007;50.770;0.250;2023-08-17T02:17:33;18.10;;;14.73;;
5961;SDS011;3007;50.770;0.250;2023-08-17T02:19:59;20.37;;;14.07;;
5961;SDS011;3007;50.770;0.250;2023-08-17T02:22:28;17.93;;;14.37;;
5961;SDS011;3007;50.770;0.250;2023-08-17T02:24:55;17.80;;;14.50;;
5961;SDS011;3007;50.770;0.250;2023-08-17T02:27:21;21.43;;;15.07;;
5961;SDS011;3007;50.770;0.250;2023-08-17T02:29:50;25.83;;;16.83;;
5961;SDS011;3007;50.770;0.250;2023-08-17T02:32:17;22.67;;;15.43;;
5961;SDS011;3007;50.770;0.250;2023-08-17T02:34:43;22.23;;;17.13;;
5961;SDS011;3007;50.770;0.250;2023-08-17T02:37:10;27.97;;;16.43;;
5961;SDS011;3007;50.770;0.250;2023-08-17T02:39:37;22.47;;;16.43;;
5961;SDS011;3007;50.770;0.250;2023-08-17T02:42:04;26.33;;;16.20;;
5961;SDS011;3007;50.770;0.250;2023-08-17T02:44:31;22.67;;;16.53;;
5961;SDS011;3007;50.770;0.250;2023-08-17T02:46:59;25.23;;;17.60;;
5961;SDS011;3007;50.770;0.250;2023-08-17T02:49:26;20.97;;;16.00;;
5961;SDS011;3007;50.770;0.250;2023-08-17T02:51:53;25.85;;;18.02;;
5961;SDS011;3007;50.770;0.250;2023-08-17T02:54:20;26.10;;;17.67;;
5961;SDS011;3007;50.770;0.250;2023-08-17T02:56:47;26.90;;;19.03;;
5961;SDS011;3007;50.770;0.250;2023-08-17T02:59:14;23.40;;;17.20;;
5961;SDS011;3007;50.770;0.250;2023-08-17T03:01:41;23.70;;;16.13;;
5961;SDS011;3007;50.770;0.250;2023-08-17T03:04:10;27.03;;;18.07;;
5961;SDS011;3007;50.770;0.250;2023-08-17T03:06:36;19.53;;;14.37;;
5961;SDS011;3007;50.770;0.250;2023-08-17T03:09:03;20.97;;;16.73;;
5961;SDS011;3007;50.770;0.250;2023-08-17T03:11:30;28.60;;;19.83;;
5961;SDS011;3007;50.770;0.250;2023-08-17T03:13:57;22.13;;;17.95;;
5961;SDS011;3007;50.770;0.250;2023-08-17T03:16:25;24.40;;;16.13;;
5961;SDS011;3007;50.770;0.250;2023-08-17T03:18:52;23.73;;;18.73;;
5961;SDS011;3007;50.770;0.250;2023-08-17T03:21:21;31.03;;;19.63;;
5961;SDS011;3007;50.770;0.250;2023-08-17T03:23:48;28.67;;;20.67;;
5961;SDS011;3007;50.770;0.250;2023-08-17T03:26:15;33.67;;;23.80;;
5961;SDS011;3007;50.770;0.250;2023-08-17T03:28:42;30.37;;;20.47;;
5961;SDS011;3007;50.770;0.250;2023-08-17T03:31:09;36.73;;;23.50;;
5961;SDS011;3007;50.770;0.250;2023-08-17T03:33:36;31.00;;;21.70;;
5961;SDS011;3007;50.770;0.250;2023-08-17T03:36:03;30.37;;;21.10;;
5961;SDS011;3007;50.770;0.250;2023-08-17T03:38:31;27.97;;;21.33;;
5961;SDS011;3007;50.770;0.250;2023-08-17T03:40:58;28.07;;;21.93;;
5961;SDS011;3007;50.770;0.250;2023-08-17T03:43:26;33.50;;;23.60;;
5961;SDS011;3007;50.770;0.250;2023-08-17T03:45:53;33.67;;;23.37;;
5961;SDS011;3007;50.770;0.250;2023-08-17T03:48:20;32.70;;;24.43;;
5961;SDS011;3007;50.770;0.250;2023-08-17T03:50:50;37.90;;;25.70;;
5961;SDS011;3007;50.770;0.250;2023-08-17T03:53:17;42.00;;;25.87;;
5961;SDS011;3007;50.770;0.250;2023-08-17T03:55:46;34.13;;;25.77;;
5961;SDS011;3007;50.770;0.250;2023-08-17T03:58:13;33.77;;;23.77;;
5961;SDS011;3007;50.770;0.250;2023-08-17T04:00:40;35.63;;;23.80;;
5961;SDS011;3007;50.770;0.250;2023-08-17T04:03:07;38.67;;;25.90;;
5961;SDS011;3007;50.770;0.250;2023-08-17T04:05:34;47.73;;;28.07;;
5961;SDS011;3007;50.770;0.250;2023-08-17T04:08:01;35.90;;;26.60;;
5961;SDS011;3007;50.770;0.250;2023-08-17T04:10:28;42.73;;;27.83;;
5961;SDS011;3007;50.770;0.250;2023-08-17T04:12:57;32.40;;;24.63;;
5961;SDS011;3007;50.770;0.250;2023-08-17T04:15:24;37.97;;;24.10;;
5961;SDS011;3007;50.770;0.250;2023-08-17T04:17:51;42.00;;;29.57;;
5961;SDS011;3007;50.770;0.250;2023-08-17T04:20:17;42.40;;;27.97;;
5961;SDS011;3007;50.770;0.250;2023-08-17T04:22:44;25.90;;;19.97;;
5961;SDS011;3007;50.770;0.250;2023-08-17T04:25:12;38.60;;;25.53;;
5961;SDS011;3007;50.770;0.250;2023-08-17T04:27:39;45.03;;;27.87;;
5961;SDS011;3007;50.770;0.250;2023-08-17T04:30:08;43.07;;;28.60;;
5961;SDS011;3007;50.770;0.250;2023-08-17T04:32:36;40.67;;;26.40;;
5961;SDS011;3007;50.770;0.250;2023-08-17T04:35:03;37.97;;;26.00;;
5961;SDS011;3007;50.770;0.250;2023-08-17T04:37:30;47.30;;;29.77;;
5961;SDS011;3007;50.770;0.250;2023-08-17T04:39:57;43.80;;;28.80;;
5961;SDS011;3007;50.770;0.250;2023-08-17T04:42:24;30.52;;;22.25;;
5961;SDS011;3007;50.770;0.250;2023-08-17T04:44:52;39.58;;;27.65;;
5961;SDS011;3007;50.770;0.250;2023-08-17T04:47:20;39.58;;;26.08;;
5961;SDS011;3007;50.770;0.250;2023-08-17T04:49:47;36.95;;;23.48;;
5961;SDS011;3007;50.770;0.250;2023-08-17T04:52:14;30.03;;;21.20;;
5961;SDS011;3007;50.770;0.250;2023-08-17T04:54:41;39.77;;;24.83;;
5961;SDS011;3007;50.770;0.250;2023-08-17T04:57:08;41.50;;;27.33;;
5961;SDS011;3007;50.770;0.250;2023-08-17T04:59:35;42.03;;;27.67;;
5961;SDS011;3007;50.770;0.250;2023-08-17T05:02:02;42.70;;;26.03;;
5961;SDS011;3007;50.770;0.250;2023-08-17T05:04:31;30.17;;;22.57;;
5961;SDS011;3007;50.770;0.250;2023-08-17T05:06:57;35.55;;;23.65;;
5961;SDS011;3007;50.770;0.250;2023-08-17T05:09:24;38.30;;;24.42;;
5961;SDS011;3007;50.770;0.250;2023-08-17T05:11:53;33.45;;;22.60;;
5961;SDS011;3007;50.770;0.250;2023-08-17T05:14:20;34.42;;;23.85;;
5961;SDS011;3007;50.770;0.250;2023-08-17T05:16:47;32.28;;;22.80;;
5961;SDS011;3007;50.770;0.250;2023-08-17T05:19:14;31.92;;;22.58;;
5961;SDS011;3007;50.770;0.250;2023-08-17T05:21:42;32.67;;;23.23;;
5961;SDS011;3007;50.770;0.250;2023-08-17T05:24:09;29.10;;;20.90;;
5961;SDS011;3007;50.770;0.250;2023-08-17T05:26:36;35.88;;;23.48;;
5961;SDS011;3007;50.770;0.250;2023-08-17T05:29:03;30.70;;;22.08;;
5961;SDS011;3007;50.770;0.250;2023-08-17T05:31:30;36.70;;;23.97;;
5961;SDS011;3007;50.770;0.250;2023-08-17T05:33:56;34.05;;;22.52;;
5961;SDS011;3007;50.770;0.250;2023-08-17T05:36:23;34.03;;;21.13;;
5961;SDS011;3007;50.770;0.250;2023-08-17T05:38:51;36.83;;;22.85;;
5961;SDS011;3007;50.770;0.250;2023-08-17T05:41:18;32.22;;;20.65;;
5961;SDS011;3007;50.770;0.250;2023-08-17T05:43:45;34.30;;;21.73;;
5961;SDS011;3007;50.770;0.250;2023-08-17T05:46:13;30.40;;;20.50;;
5961;SDS011;3007;50.770;0.250;2023-08-17T05:48:43;32.95;;;21.42;;
5961;SDS011;3007;50.770;0.250;2023-08-17T05:51:13;31.25;;;21.13;;
5961;SDS011;3007;50.770;0.250;2023-08-17T05:53:40;29.55;;;21.73;;
5961;SDS011;3007;50.770;0.250;2023-08-17T05:56:08;29.10;;;19.60;;
5961;SDS011;3007;50.770;0.250;2023-08-17T05:58:35;28.52;;;18.67;;
5961;SDS011;3007;50.770;0.250;2023-08-17T06:01:04;28.98;;;18.98;;
5961;SDS011;3007;50.770;0.250;2023-08-17T06:03:32;30.95;;;20.00;;
5961;SDS011;3007;50.770;0.250;2023-08-17T06:05:59;22.45;;;17.90;;
5961;SDS011;3007;50.770;0.250;2023-08-17T06:08:26;30.67;;;20.67;;
5961;SDS011;3007;50.770;0.250;2023-08-17T06:10:53;28.13;;;18.88;;
5961;SDS011;3007;50.770;0.250;2023-08-17T06:13:21;28.05;;;19.40;;
5961;SDS011;3007;50.770;0.250;2023-08-17T06:15:48;30.02;;;18.55;;
5961;SDS011;3007;50.770;0.250;2023-08-17T06:18:15;27.13;;;16.55;;
5961;SDS011;3007;50.770;0.250;2023-08-17T06:20:42;24.45;;;15.07;;
5961;SDS011;3007;50.770;0.250;2023-08-17T06:23:11;23.65;;;15.05;;
5961;SDS011;3007;50.770;0.250;2023-08-17T06:25:38;23.60;;;15.95;;
5961;SDS011;3007;50.770;0.250;2023-08-17T06:28:05;23.25;;;14.55;;
5961;SDS011;3007;50.770;0.250;2023-08-17T06:30:33;20.20;;;13.50;;
5961;SDS011;3007;50.770;0.250;2023-08-17T06:33:00;21.80;;;12.82;;
5961;SDS011;3007;50.770;0.250;2023-08-17T06:35:27;20.52;;;12.40;;
5961;SDS011;3007;50.770;0.250;2023-08-17T06:37:54;15.18;;;9.68;;
5961;SDS011;3007;50.770;0.250;2023-08-17T06:40:23;22.10;;;9.95;;
5961;SDS011;3007;50.770;0.250;2023-08-17T06:42:50;15.40;;;9.32;;
5961;SDS011;3007;50.770;0.250;2023-08-17T06:45:17;17.30;;;8.10;;
5961;SDS011;3007;50.770;0.250;2023-08-17T06:47:47;12.05;;;7.32;;
5961;SDS011;3007;50.770;0.250;2023-08-17T06:50:14;16.30;;;7.13;;
5961;SDS011;3007;50.770;0.250;2023-08-17T06:52:41;15.40;;;6.53;;
5961;SDS011;3007;50.770;0.250;2023-08-17T06:55:08;13.75;;;5.93;;
5961;SDS011;3007;50.770;0.250;2023-08-17T06:57:36;16.83;;;6.88;;
5961;SDS011;3007;50.770;0.250;2023-08-17T07:00:03;17.30;;;5.68;;
5961;SDS011;3007;50.770;0.250;2023-08-17T07:02:31;10.50;;;4.72;;
5961;SDS011;3007;50.770;0.250;2023-08-17T07:05:00;10.45;;;4.40;;
5961;SDS011;3007;50.770;0.250;2023-08-17T07:07:28;14.02;;;5.28;;
5961;SDS011;3007;50.770;0.250;2023-08-17T07:09:56;10.85;;;4.35;;
5961;SDS011;3007;50.770;0.250;2023-08-17T07:12:23;12.02;;;4.22;;
5961;SDS011;3007;50.770;0.250;2023-08-17T07:14:50;10.35;;;3.53;;
5961;SDS011;3007;50.770;0.250;2023-08-17T07:17:17;20.75;;;5.32;;
5961;SDS011;3007;50.770;0.250;2023-08-17T07:19:44;18.00;;;4.70;;
5961;SDS011;3007;50.770;0.250;2023-08-17T07:22:12;13.90;;;3.97;;
5961;SDS011;3007;50.770;0.250;2023-08-17T07:24:39;16.05;;;4.20;;
5961;SDS011;3007;50.770;0.250;2023-08-17T07:27:06;14.57;;;3.83;;
5961;SDS011;3007;50.770;0.250;2023-08-17T07:29:33;15.90;;;4.72;;
5961;SDS011;3007;50.770;0.250;2023-08-17T07:31:59;12.85;;;3.80;;
5961;SDS011;3007;50.770;0.250;2023-08-17T07:34:27;12.02;;;4.30;;
5961;SDS011;3007;50.770;0.250;2023-08-17T07:36:55;11.82;;;4.00;;
5961;SDS011;3007;50.770;0.250;2023-08-17T07:39:23;12.73;;;4.05;;
5961;SDS011;3007;50.770;0.250;2023-08-17T07:41:50;14.52;;;3.90;;
5961;SDS011;3007;50.770;0.250;2023-08-17T07:44:17;13.32;;;3.88;;
5961;SDS011;3007;50.770;0.250;2023-08-17T07:46:44;17.85;;;4.40;;
5961;SDS011;3007;50.770;0.250;2023-08-17T07:49:10;10.40;;;4.70;;
5961;SDS011;3007;50.770;0.250;2023-08-17T07:51:37;13.50;;;3.70;;
5961;SDS011;3007;50.770;0.250;2023-08-17T07:54:04;17.77;;;4.53;;
5961;SDS011;3007;50.770;0.250;2023-08-17T07:56:32;26.10;;;13.05;;
5961;SDS011;3007;50.770;0.250;2023-08-17T07:58:59;13.68;;;4.18;;
5961;SDS011;3007;50.770;0.250;2023-08-17T08:01:26;13.50;;;3.78;;
5961;SDS011;3007;50.770;0.250;2023-08-17T08:03:53;10.60;;;3.97;;
5961;SDS011;3007;50.770;0.250;2023-08-17T08:06:20;9.75;;;3.63;;
5961;SDS011;3007;50.770;0.250;2023-08-17T08:08:48;10.77;;;3.97;;
5961;SDS011;3007;50.770;0.250;2023-08-17T08:11:14;12.77;;;4.13;;
5961;SDS011;3007;50.770;0.250;2023-08-17T08:13:43;13.57;;;4.47;;
5961;SDS011;3007;50.770;0.250;2023-08-17T08:16:09;11.52;;;3.67;;
5961;SDS011;3007;50.770;0.250;2023-08-17T08:18:36;15.18;;;5.20;;
5961;SDS011;3007;50.770;0.250;2023-08-17T08:21:03;24.15;;;5.07;;
5961;SDS011;3007;50.770;0.250;2023-08-17T08:23:30;10.27;;;3.78;;
5961;SDS011;3007;50.770;0.250;2023-08-17T08:25:57;12.77;;;4.43;;
5961;SDS011;3007;50.770;0.250;2023-08-17T08:28:24;13.65;;;4.10;;
5961;SDS011;3007;50.770;0.250;2023-08-17T08:30:54;13.52;;;4.72;;
5961;SDS011;3007;50.770;0.250;2023-08-17T08:33:21;8.85;;;4.70;;
5961;SDS011;3007;50.770;0.250;2023-08-17T08:35:48;10.90;;;5.35;;
5961;SDS011;3007;50.770;0.250;2023-08-17T08:38:15;11.40;;;4.75;;
5961;SDS011;3007;50.770;0.250;2023-08-17T08:40:41;11.30;;;4.18;;
5961;SDS011;3007;50.770;0.250;2023-08-17T08:43:10;14.80;;;4.28;;
5961;SDS011;3007;50.770;0.250;2023-08-17T08:45:37;8.90;;;4.50;;
5961;SDS011;3007;50.770;0.250;2023-08-17T08:48:08;12.50;;;4.22;;
5961;SDS011;3007;50.770;0.250;2023-08-17T08:50:35;12.82;;;5.20;;
5961;SDS011;3007;50.770;0.250;2023-08-17T08:53:02;9.85;;;4.53;;
5961;SDS011;3007;50.770;0.250;2023-08-17T08:55:33;11.05;;;4.07;;
5961;SDS011;3007;50.770;0.250;2023-08-17T08:58:03;14.40;;;5.25;;
5961;SDS011;3007;50.770;0.250;2023-08-17T09:00:30;11.13;;;4.50;;
5961;SDS011;3007;50.770;0.250;2023-08-17T09:02:59;10.82;;;5.10;;
5961;SDS011;3007;50.770;0.250;2023-08-17T09:05:29;13.38;;;4.78;;
5961;SDS011;3007;50.770;0.250;2023-08-17T09:07:59;11.05;;;3.95;;
5961;SDS011;3007;50.770;0.250;2023-08-17T09:10:28;11.05;;;4.15;;
5961;SDS011;3007;50.770;0.250;2023-08-17T09:12:54;10.45;;;3.55;;
5961;SDS011;3007;50.770;0.250;2023-08-17T09:15:22;10.10;;;4.07;;
5961;SDS011;3007;50.770;0.250;2023-08-17T09:17:48;11.25;;;3.60;;
5961;SDS011;3007;50.770;0.250;2023-08-17T09:23:04;13.60;;;4.20;;
5961;SDS011;3007;50.770;0.250;2023-08-17T09:25:37;11.68;;;3.80;;
5961;SDS011;3007;50.770;0.250;2023-08-17T09:28:06;9.23;;;3.42;;
5961;SDS011;3007;50.770;0.250;2023-08-17T09:30:40;11.82;;;4.07;;
5961;SDS011;3007;50.770;0.250;2023-08-17T09:33:16;12.82;;;3.58;;
5961;SDS011;3007;50.770;0.250;2023-08-17T09:35:45;8.63;;;3.55;;
5961;SDS011;3007;50.770;0.250;2023-08-17T09:38:12;10.70;;;3.83;;
5961;SDS011;3007;50.770;0.250;2023-08-17T09:40:39;12.80;;;3.75;;
5961;SDS011;3007;50.770;0.250;2023-08-17T09:43:05;14.25;;;3.92;;
5961;SDS011;3007;50.770;0.250;2023-08-17T09:45:32;13.18;;;3.33;;
5961;SDS011;3007;50.770;0.250;2023-08-17T09:47:59;9.63;;;3.17;;
5961;SDS011;3007;50.770;0.250;2023-08-17T09:50:27;12.95;;;3.10;;
5961;SDS011;3007;50.770;0.250;2023-08-17T09:52:55;15.82;;;3.38;;
5961;SDS011;3007;50.770;0.250;2023-08-17T09:55:22;11.48;;;3.05;;
5961;SDS011;3007;50.770;0.250;2023-08-17T09:57:49;11.20;;;2.90;;
5961;SDS011;3007;50.770;0.250;2023-08-17T10:00:17;9.20;;;2.95;;
5961;SDS011;3007;50.770;0.250;2023-08-17T10:02:45;11.48;;;3.00;;
5961;SDS011;3007;50.770;0.250;2023-08-17T10:05:17;10.95;;;3.35;;
5961;SDS011;3007;50.770;0.250;2023-08-17T10:07:46;10.52;;;2.95;;
5961;SDS011;3007;50.770;0.250;2023-08-17T10:10:16;14.90;;;3.17;;
5961;SDS011;3007;50.770;0.250;2023-08-17T10:12:48;10.73;;;3.30;;
5961;SDS011;3007;50.770;0.250;2023-08-17T10:15:19;10.27;;;2.42;;
5961;SDS011;3007;50.770;0.250;2023-08-17T10:17:49;11.93;;;3.05;;
5961;SDS011;3007;50.770;0.250;2023-08-17T10:20:21;11.45;;;2.60;;
5961;SDS011;3007;50.770;0.250;2023-08-17T10:22:51;10.63;;;2.97;;
5961;SDS011;3007;50.770;0.250;2023-08-17T10:25:26;5.80;;;2.33;;
5961;SDS011;3007;50.770;0.250;2023-08-17T10:27:53;12.13;;;3.20;;
5961;SDS011;3007;50.770;0.250;2023-08-17T10:30:21;11.38;;;3.05;;
5961;SDS011;3007;50.770;0.250;2023-08-17T10:32:48;10.90;;;2.70;;
5961;SDS011;3007;50.770;0.250;2023-08-17T10:35:15;7.95;;;2.38;;
5961;SDS011;3007;50.770;0.250;2023-08-17T10:37:42;7.38;;;2.30;;
5961;SDS011;3007;50.770;0.250;2023-08-17T10:40:10;12.23;;;2.90;;
5961;SDS011;3007;50.770;0.250;2023-08-17T10:42:38;6.38;;;2.17;;
5961;SDS011;3007;50.770;0.250;2023-08-17T10:47:55;9.10;;;2.25;;
5961;SDS011;3007;50.770;0.250;2023-08-17T10:50:26;6.82;;;2.22;;
5961;SDS011;3007;50.770;0.250;2023-08-17T10:52:53;6.70;;;1.83;;
5961;SDS011;3007;50.770;0.250;2023-08-17T10:55:35;6.18;;;2.22;;
5961;SDS011;3007;50.770;0.250;2023-08-17T10:58:05;7.28;;;2.00;;
5961;SDS011;3007;50.770;0.250;2023-08-17T11:00:33;3.47;;;1.70;;
5961;SDS011;3007;50.770;0.250;2023-08-17T11:03:03;7.25;;;2.00;;
5961;SDS011;3007;50.770;0.250;2023-08-17T11:05:35;5.18;;;1.85;;
5961;SDS011;3007;50.770;0.250;2023-08-17T11:08:03;6.68;;;1.80;;
5961;SDS011;3007;50.770;0.250;2023-08-17T11:10:30;6.63;;;1.98;;
5961;SDS011;3007;50.770;0.250;2023-08-17T11:12:58;4.85;;;1.98;;
5961;SDS011;3007;50.770;0.250;2023-08-17T11:15:34;6.30;;;1.67;;
5961;SDS011;3007;50.770;0.250;2023-08-17T11:18:04;8.40;;;2.13;;
5961;SDS011;3007;50.770;0.250;2023-08-17T11:20:32;4.30;;;1.73;;
5961;SDS011;3007;50.770;0.250;2023-08-17T11:22:59;5.95;;;1.92;;
5961;SDS011;3007;50.770;0.250;2023-08-17T11:25:27;5.55;;;2.00;;
5961;SDS011;3007;50.770;0.250;2023-08-17T11:27:55;4.15;;;1.60;;
5961;SDS011;3007;50.770;0.250;2023-08-17T11:30:22;9.27;;;2.22;;
5961;SDS011;3007;50.770;0.250;2023-08-17T11:32:52;5.93;;;1.85;;
5961;SDS011;3007;50.770;0.250;2023-08-17T11:35:19;7.82;;;2.30;;
5961;SDS011;3007;50.770;0.250;2023-08-17T11:37:46;5.78;;;1.75;;
5961;SDS011;3007;50.770;0.250;2023-08-17T11:40:15;4.97;;;2.17;;
5961;SDS011;3007;50.770;0.250;2023-08-17T11:42:42;6.50;;;1.90;;
5961;SDS011;3007;50.770;0.250;2023-08-17T11:45:09;5.63;;;1.80;;
5961;SDS011;3007;50.770;0.250;2023-08-17T11:47:37;7.80;;;2.25;;
5961;SDS011;3007;50.770;0.250;2023-08-17T11:50:06;6.50;;;2.03;;
5961;SDS011;3007;50.770;0.250;2023-08-17T11:52:35;4.45;;;1.73;;
5961;SDS011;3007;50.770;0.250;2023-08-17T11:55:02;6.50;;;2.03;;
5961;SDS011;3007;50.770;0.250;2023-08-17T11:57:30;9.38;;;1.90;;
5961;SDS011;3007;50.770;0.250;2023-08-17T11:59:58;8.90;;;1.80;;
5961;SDS011;3007;50.770;0.250;2023-08-17T12:02:26;8.57;;;2.22;;
5961;SDS011;3007;50.770;0.250;2023-08-17T12:04:54;4.25;;;1.70;;
5961;SDS011;3007;50.770;0.250;2023-08-17T12:07:26;5.78;;;1.70;;
5961;SDS011;3007;50.770;0.250;2023-08-17T12:09:53;6.70;;;2.53;;
5961;SDS011;3007;50.770;0.250;2023-08-17T12:12:21;4.60;;;1.52;;
5961;SDS011;3007;50.770;0.250;2023-08-17T12:14:48;7.32;;;1.92;;
5961;SDS011;3007;50.770;0.250;2023-08-17T12:17:17;6.70;;;1.92;;
5961;SDS011;3007;50.770;0.250;2023-08-17T12:19:48;8.10;;;2.05;;
5961;SDS011;3007;50.770;0.250;2023-08-17T12:22:16;6.30;;;1.63;;
5961;SDS011;3007;50.770;0.250;2023-08-17T12:24:45;4.18;;;1.70;;
5961;SDS011;3007;50.770;0.250;2023-08-17T12:27:13;6.28;;;1.70;;
5961;SDS011;3007;50.770;0.250;2023-08-17T12:29:46;6.80;;;2.10;;
5961;SDS011;3007;50.770;0.250;2023-08-17T12:32:18;5.30;;;1.70;;
5961;SDS011;3007;50.770;0.250;2023-08-17T12:34:46;6.10;;;1.67;;
5961;SDS011;3007;50.770;0.250;2023-08-17T12:37:17;11.05;;;2.15;;
5961;SDS011;3007;50.770;0.250;2023-08-17T12:39:49;6.70;;;1.85;;
5961;SDS011;3007;50.770;0.250;2023-08-17T12:42:16;5.75;;;1.70;;
5961;SDS011;3007;50.770;0.250;2023-08-17T12:44:43;6.47;;;1.98;;
5961;SDS011;3007;50.770;0.250;2023-08-17T12:47:10;7.03;;;1.90;;
5961;SDS011;3007;50.770;0.250;2023-08-17T12:49:39;7.00;;;2.55;;
5961;SDS011;3007;50.770;0.250;2023-08-17T12:52:06;7.90;;;2.60;;
5961;SDS011;3007;50.770;0.250;2023-08-17T12:54:33;9.05;;;2.50;;
5961;SDS011;3007;50.770;0.250;2023-08-17T12:57:01;6.32;;;2.17;;
5961;SDS011;3007;50.770;0.250;2023-08-17T12:59:29;9.30;;;1.90;;
5961;SDS011;3007;50.770;0.250;2023-08-17T13:01:56;7.32;;;2.20;;
5961;SDS011;3007;50.770;0.250;2023-08-17T13:04:23;5.72;;;2.17;;
5961;SDS011;3007;50.770;0.250;2023-08-17T13:06:50;7.13;;;2.10;;
5961;SDS011;3007;50.770;0.250;2023-08-17T13:09:16;7.53;;;2.20;;
5961;SDS011;3007;50.770;0.250;2023-08-17T13:11:44;5.90;;;2.00;;
5961;SDS011;3007;50.770;0.250;2023-08-17T13:14:13;6.10;;;2.30;;
5961;SDS011;3007;50.770;0.250;2023-08-17T13:16:40;7.68;;;2.55;;
5961;SDS011;3007;50.770;0.250;2023-08-17T13:19:07;9.88;;;3.00;;
5961;SDS011;3007;50.770;0.250;2023-08-17T13:21:34;9.23;;;2.60;;
5961;SDS011;3007;50.770;0.250;2023-08-17T13:24:01;5.85;;;2.55;;
5961;SDS011;3007;50.770;0.250;2023-08-17T13:26:28;8.27;;;2.97;;
5961;SDS011;3007;50.770;0.250;2023-08-17T13:28:55;6.25;;;2.63;;
5961;SDS011;3007;50.770;0.250;2023-08-17T13:31:24;10.60;;;2.83;;
5961;SDS011;3007;50.770;0.250;2023-08-17T13:33:51;12.82;;;2.88;;
5961;SDS011;3007;50.770;0.250;2023-08-17T13:36:18;8.90;;;2.65;;
5961;SDS011;3007;50.770;0.250;2023-08-17T13:38:45;11.23;;;3.17;;
5961;SDS011;3007;50.770;0.250;2023-08-17T13:41:12;9.48;;;3.22;;
5961;SDS011;3007;50.770;0.250;2023-08-17T13:43:39;14.82;;;3.80;;
5961;SDS011;3007;50.770;0.250;2023-08-17T13:46:06;9.55;;;3.00;;
5961;SDS011;3007;50.770;0.250;2023-08-17T13:48:35;14.45;;;3.13;;
5961;SDS011;3007;50.770;0.250;2023-08-17T13:51:03;10.90;;;3.10;;
5961;SDS011;3007;50.770;0.250;2023-08-17T13:53:30;17.13;;;3.60;;
5961;SDS011;3007;50.770;0.250;2023-08-17T13:55:57;6.88;;;2.88;;
5961;SDS011;3007;50.770;0.250;2023-08-17T13:58:24;12.23;;;3.08;;
5961;SDS011;3007;50.770;0.250;2023-08-17T14:00:51;12.65;;;2.55;;
5961;SDS011;3007;50.770;0.250;2023-08-17T14:03:18;13.60;;;3.00;;
5961;SDS011;3007;50.770;0.250;2023-08-17T14:05:48;13.98;;;3.20;;
5961;SDS011;3007;50.770;0.250;2023-08-17T14:08:15;12.20;;;3.25;;
5961;SDS011;3007;50.770;0.250;2023-08-17T14:10:44;18.70;;;3.55;;
5961;SDS011;3007;50.770;0.250;2023-08-17T14:13:13;16.00;;;3.38;;
5961;SDS011;3007;50.770;0.250;2023-08-17T14:15:40;12.68;;;3.13;;
5961;SDS011;3007;50.770;0.250;2023-08-17T14:18:07;10.52;;;2.92;;
5961;SDS011;3007;50.770;0.250;2023-08-17T14:20:34;12.60;;;2.90;;
5961;SDS011;3007;50.770;0.250;2023-08-17T14:23:05;11.52;;;2.88;;
5961;SDS011;3007;50.770;0.250;2023-08-17T14:25:32;18.05;;;3.72;;
5961;SDS011;3007;50.770;0.250;2023-08-17T14:28:00;13.20;;;3.22;;
5961;SDS011;3007;50.770;0.250;2023-08-17T14:30:32;10.40;;;2.85;;
5961;SDS011;3007;50.770;0.250;2023-08-17T14:32:59;15.27;;;3.70;;
5961;SDS011;3007;50.770;0.250;2023-08-17T14:35:29;13.77;;;3.78;;
5961;SDS011;3007;50.770;0.250;2023-08-17T14:37:56;14.65;;;3.85;;
5961;SDS011;3007;50.770;0.250;2023-08-17T14:40:27;10.38;;;2.72;;
5961;SDS011;3007;50.770;0.250;2023-08-17T14:42:54;18.45;;;3.10;;
5961;SDS011;3007;50.770;0.250;2023-08-17T14:45:21;8.68;;;2.70;;
5961;SDS011;3007;50.770;0.250;2023-08-17T14:47:48;10.70;;;3.20;;
5961;SDS011;3007;50.770;0.250;2023-08-17T14:50:16;10.65;;;3.55;;
5961;SDS011;3007;50.770;0.250;2023-08-17T14:52:49;12.52;;;3.17;;
5961;SDS011;3007;50.770;0.250;2023-08-17T14:55:16;9.95;;;3.13;;
5961;SDS011;3007;50.770;0.250;2023-08-17T14:57:44;10.18;;;2.47;;
5961;SDS011;3007;50.770;0.250;2023-08-17T15:00:11;13.43;;;2.33;;
5961;SDS011;3007;50.770;0.250;2023-08-17T15:02:39;12.60;;;3.47;;
5961;SDS011;3007;50.770;0.250;2023-08-17T15:05:06;12.52;;;3.17;;
5961;SDS011;3007;50.770;0.250;2023-08-17T15:07:33;12.18;;;3.10;;